sensor_id;sensor_type;location;lat;lon;timestamp;pressure;altitude;pressure_sealevel;temperature;humidity
31761;BME280;18335;51.486;7.562;2023-06-04T00:00:28;100737.59;;;10.20;100.00
31761;BME280;18335;51.486;7.562;2023-06-04T00:02:55;100730.88;;;10.42;100.00
31761;BME280;18335;51.486;7.562;2023-06-04T00:05:23;100731.97;;;10.49;100.00
31761;BME280;18335;51.486;7.562;2023-06-04T00:07:50;100732.59;;;10.43;100.00
31761;BME280;18335;51.486;7.562;2023-06-04T00:10:17;100737.47;;;10.39;100.00
31761;BME280;18335;51.486;7.562;2023-06-04T00:12:44;100737.66;;;10.38;100.00
31761;BME280;18335;51.486;7.562;2023-06-04T00:15:12;100728.25;;;10.23;100.00
31761;BME280;18335;51.486;7.562;2023-06-04T00:17:40;100729.25;;;10.22;100.00
31761;BME280;18335;51.486;7.562;2023-06-04T00:20:07;100730.50;;;10.00;100.00
31761;BME280;18335;51.486;7.562;2023-06-04T00:22:36;100730.97;;;9.86;100.00
31761;BME280;18335;51.486;7.562;2023-06-04T00:25:03;100732.41;;;9.80;100.00
31761;BME280;18335;51.486;7.562;2023-06-04T00:27:30;100733.00;;;9.74;100.00
31761;BME280;18335;51.486;7.562;2023-06-04T00:29:57;100723.94;;;9.83;100.00
31761;BME280;18335;51.486;7.562;2023-06-04T00:32:24;100725.34;;;9.97;100.00
31761;BME280;18335;51.486;7.562;2023-06-04T00:34:51;100725.13;;;10.18;100.00
31761;BME280;18335;51.486;7.562;2023-06-04T00:37:17;100723.06;;;9.92;100.00
31761;BME280;18335;51.486;7.562;2023-06-04T00:39:46;100726.56;;;9.75;100.00
31761;BME280;18335;51.486;7.562;2023-06-04T00:42:13;100728.63;;;9.64;100.00
31761;BME280;18335;51.486;7.562;2023-06-04T00:44:40;100730.56;;;9.81;100.00
31761;BME280;18335;51.486;7.562;2023-06-04T00:47:10;100730.84;;;9.78;100.00
31761;BME280;18335;51.486;7.562;2023-06-04T00:49:37;100737.66;;;9.55;100.00
31761;BME280;18335;51.486;7.562;2023-06-04T00:52:04;100733.53;;;9.41;100.00
31761;BME280;18335;51.486;7.562;2023-06-04T00:54:31;100738.97;;;9.41;100.00
31761;BME280;18335;51.486;7.562;2023-06-04T00:57:01;100743.84;;;9.47;100.00
31761;BME280;18335;51.486;7.562;2023-06-04T00:59:28;100742.34;;;9.72;100.00
31761;BME280;18335;51.486;7.562;2023-06-04T01:01:59;100727.00;;;9.71;100.00
31761;BME280;18335;51.486;7.562;2023-06-04T01:04:30;100737.88;;;9.80;100.00
31761;BME280;18335;51.486;7.562;2023-06-04T01:07:00;100740.53;;;9.53;100.00
31761;BME280;18335;51.486;7.562;2023-06-04T01:09:29;100734.25;;;9.43;100.00
31761;BME280;18335;51.486;7.562;2023-06-04T01:11:56;100736.81;;;9.35;100.00
31761;BME280;18335;51.486;7.562;2023-06-04T01:14:26;100729.22;;;9.38;100.00
31761;BME280;18335;51.486;7.562;2023-06-04T01:16:56;100737.81;;;9.53;100.00
31761;BME280;18335;51.486;7.562;2023-06-04T01:20:02;100741.16;;;9.28;100.00
31761;BME280;18335;51.486;7.562;2023-06-04T01:22:38;100752.34;;;9.06;100.00
31761;BME280;18335;51.486;7.562;2023-06-04T01:25:15;100756.50;;;9.10;100.00
31761;BME280;18335;51.486;7.562;2023-06-04T01:27:48;100749.31;;;9.18;100.00
31761;BME280;18335;51.486;7.562;2023-06-04T01:30:18;100745.72;;;9.37;100.00
31761;BME280;18335;51.486;7.562;2023-06-04T01:32:45;100740.41;;;9.26;100.00
31761;BME280;18335;51.486;7.562;2023-06-04T01:35:13;100742.72;;;9.21;100.00
31761;BME280;18335;51.486;7.562;2023-06-04T01:37:39;100756.50;;;9.10;100.00
31761;BME280;18335;51.486;7.562;2023-06-04T01:40:07;100745.47;;;8.92;100.00
31761;BME280;18335;51.486;7.562;2023-06-04T01:42:34;100742.88;;;9.00;100.00
31761;BME280;18335;51.486;7.562;2023-06-04T01:45:01;100742.47;;;9.05;100.00
31761;BME280;18335;51.486;7.562;2023-06-04T01:47:29;100748.03;;;8.74;100.00
31761;BME280;18335;51.486;7.562;2023-06-04T01:49:56;100740.72;;;8.65;100.00
31761;BME280;18335;51.486;7.562;2023-06-04T01:52:23;100747.31;;;8.72;100.00
31761;BME280;18335;51.486;7.562;2023-06-04T01:54:50;100739.16;;;8.63;100.00
31761;BME280;18335;51.486;7.562;2023-06-04T01:57:18;100739.53;;;8.49;100.00
31761;BME280;18335;51.486;7.562;2023-06-04T01:59:45;100750.16;;;8.12;100.00
31761;BME280;18335;51.486;7.562;2023-06-04T02:02:13;100743.41;;;8.16;100.00
31761;BME280;18335;51.486;7.562;2023-06-04T02:04:42;100745.69;;;8.11;100.00
31761;BME280;18335;51.486;7.562;2023-06-04T02:07:11;100744.13;;;8.08;100.00
31761;BME280;18335;51.486;7.562;2023-06-04T02:09:39;100739.81;;;8.06;100.00
31761;BME280;18335;51.486;7.562;2023-06-04T02:12:07;100740.94;;;7.94;100.00
31761;BME280;18335;51.486;7.562;2023-06-04T02:14:38;100739.91;;;7.95;100.00
31761;BME280;18335;51.486;7.562;2023-06-04T02:17:07;100747.56;;;8.10;100.00
31761;BME280;18335;51.486;7.562;2023-06-04T02:19:38;100753.16;;;7.78;100.00
31761;BME280;18335;51.486;7.562;2023-06-04T02:22:11;100756.06;;;7.66;100.00
31761;BME280;18335;51.486;7.562;2023-06-04T02:24:38;100757.28;;;7.82;100.00
31761;BME280;18335;51.486;7.562;2023-06-04T02:27:08;100754.41;;;7.74;100.00
31761;BME280;18335;51.486;7.562;2023-06-04T02:29:35;100753.47;;;7.85;100.00
31761;BME280;18335;51.486;7.562;2023-06-04T02:32:02;100748.44;;;7.80;100.00
31761;BME280;18335;51.486;7.562;2023-06-04T02:34:29;100755.31;;;7.85;100.00
31761;BME280;18335;51.486;7.562;2023-06-04T02:36:56;100750.53;;;7.67;100.00
31761;BME280;18335;51.486;7.562;2023-06-04T02:39:25;100758.28;;;7.51;100.00
31761;BME280;18335;51.486;7.562;2023-06-04T02:41:52;100761.94;;;7.61;100.00
31761;BME280;18335;51.486;7.562;2023-06-04T02:44:19;100747.53;;;7.70;100.00
31761;BME280;18335;51.486;7.562;2023-06-04T02:46:46;100753.25;;;7.67;100.00
31761;BME280;18335;51.486;7.562;2023-06-04T02:49:13;100754.56;;;7.52;100.00
31761;BME280;18335;51.486;7.562;2023-06-04T02:51:40;100758.81;;;7.45;100.00
31761;BME280;18335;51.486;7.562;2023-06-04T02:54:07;100747.69;;;7.48;100.00
31761;BME280;18335;51.486;7.562;2023-06-04T02:56:36;100748.81;;;7.46;100.00
31761;BME280;18335;51.486;7.562;2023-06-04T02:59:04;100752.56;;;7.54;100.00
31761;BME280;18335;51.486;7.562;2023-06-04T03:01:33;100755.50;;;7.42;100.00
31761;BME280;18335;51.486;7.562;2023-06-04T03:04:00;100758.13;;;7.32;100.00
31761;BME280;18335;51.486;7.562;2023-06-04T03:06:29;100750.41;;;7.48;100.00
31761;BME280;18335;51.486;7.562;2023-06-04T03:08:56;100753.75;;;7.20;100.00
31761;BME280;18335;51.486;7.562;2023-06-04T03:11:23;100760.13;;;7.30;100.00
31761;BME280;18335;51.486;7.562;2023-06-04T03:13:51;100756.69;;;7.28;100.00
31761;BME280;18335;51.486;7.562;2023-06-04T03:16:22;100759.06;;;7.21;100.00
31761;BME280;18335;51.486;7.562;2023-06-04T03:18:49;100758.41;;;7.29;100.00
31761;BME280;18335;51.486;7.562;2023-06-04T03:21:16;100759.25;;;7.09;100.00
31761;BME280;18335;51.486;7.562;2023-06-04T03:23:43;100755.94;;;7.26;100.00
31761;BME280;18335;51.486;7.562;2023-06-04T03:26:10;100761.88;;;7.31;100.00
31761;BME280;18335;51.486;7.562;2023-06-04T03:28:39;100755.31;;;7.13;100.00
31761;BME280;18335;51.486;7.562;2023-06-04T03:31:09;100751.19;;;7.18;100.00
31761;BME280;18335;51.486;7.562;2023-06-04T03:33:35;100760.66;;;7.24;100.00
31761;BME280;18335;51.486;7.562;2023-06-04T03:36:03;100757.06;;;7.23;100.00
31761;BME280;18335;51.486;7.562;2023-06-04T03:38:29;100763.63;;;7.21;100.00
31761;BME280;18335;51.486;7.562;2023-06-04T03:40:57;100766.63;;;7.18;100.00
31761;BME280;18335;51.486;7.562;2023-06-04T03:43:24;100766.78;;;7.05;100.00
31761;BME280;18335;51.486;7.562;2023-06-04T03:45:56;100765.09;;;7.25;100.00
31761;BME280;18335;51.486;7.562;2023-06-04T03:48:24;100768.59;;;7.16;100.00
31761;BME280;18335;51.486;7.562;2023-06-04T03:50:52;100769.94;;;7.21;100.00
31761;BME280;18335;51.486;7.562;2023-06-04T03:53:19;100770.31;;;7.17;100.00
31761;BME280;18335;51.486;7.562;2023-06-04T03:55:46;100776.56;;;7.29;100.00
31761;BME280;18335;51.486;7.562;2023-06-04T03:58:14;100779.31;;;7.38;100.00
31761;BME280;18335;51.486;7.562;2023-06-04T04:00:44;100777.66;;;7.26;100.00
31761;BME280;18335;51.486;7.562;2023-06-04T04:03:12;100775.91;;;7.36;100.00
31761;BME280;18335;51.486;7.562;2023-06-04T04:05:40;100773.09;;;7.47;100.00
31761;BME280;18335;51.486;7.562;2023-06-04T04:08:07;100778.59;;;7.57;100.00
31761;BME280;18335;51.486;7.562;2023-06-04T04:10:35;100777.31;;;7.82;100.00
31761;BME280;18335;51.486;7.562;2023-06-04T04:13:03;100773.94;;;7.68;100.00
31761;BME280;18335;51.486;7.562;2023-06-04T04:15:33;100776.31;;;7.82;100.00
31761;BME280;18335;51.486;7.562;2023-06-04T04:18:02;100773.97;;;7.99;100.00
31761;BME280;18335;51.486;7.562;2023-06-04T04:20:29;100776.59;;;8.10;100.00
31761;BME280;18335;51.486;7.562;2023-06-04T04:23:02;100781.34;;;8.17;100.00
31761;BME280;18335;51.486;7.562;2023-06-04T04:25:30;100778.81;;;8.25;100.00
31761;BME280;18335;51.486;7.562;2023-06-04T04:27:59;100774.72;;;8.10;100.00
31761;BME280;18335;51.486;7.562;2023-06-04T04:30:29;100772.72;;;8.33;100.00
31761;BME280;18335;51.486;7.562;2023-06-04T04:32:59;100778.75;;;8.46;100.00
31761;BME280;18335;51.486;7.562;2023-06-04T04:35:33;100763.31;;;8.56;100.00
31761;BME280;18335;51.486;7.562;2023-06-04T04:38:02;100768.22;;;8.72;100.00
31761;BME280;18335;51.486;7.562;2023-06-04T04:40:32;100760.22;;;8.89;100.00
31761;BME280;18335;51.486;7.562;2023-06-04T04:43:00;100763.50;;;9.03;100.00
31761;BME280;18335;51.486;7.562;2023-06-04T04:45:27;100770.97;;;9.10;100.00
31761;BME280;18335;51.486;7.562;2023-06-04T04:47:57;100763.94;;;9.27;100.00
31761;BME280;18335;51.486;7.562;2023-06-04T04:50:24;100760.94;;;9.30;100.00
31761;BME280;18335;51.486;7.562;2023-06-04T04:52:51;100757.63;;;9.36;100.00
31761;BME280;18335;51.486;7.562;2023-06-04T04:55:20;100763.63;;;9.59;100.00
31761;BME280;18335;51.486;7.562;2023-06-04T04:57:49;100764.47;;;9.59;100.00
31761;BME280;18335;51.486;7.562;2023-06-04T05:00:18;100766.31;;;9.68;100.00
31761;BME280;18335;51.486;7.562;2023-06-04T05:02:48;100764.41;;;9.88;100.00
31761;BME280;18335;51.486;7.562;2023-06-04T05:05:15;100765.19;;;10.08;100.00
31761;BME280;18335;51.486;7.562;2023-06-04T05:07:45;100761.59;;;10.17;100.00
31761;BME280;18335;51.486;7.562;2023-06-04T05:10:12;100761.06;;;10.31;100.00
31761;BME280;18335;51.486;7.562;2023-06-04T05:12:50;100760.16;;;10.40;100.00
31761;BME280;18335;51.486;7.562;2023-06-04T05:15:18;100759.72;;;10.44;100.00
31761;BME280;18335;51.486;7.562;2023-06-04T05:17:46;100760.31;;;10.66;100.00
31761;BME280;18335;51.486;7.562;2023-06-04T05:20:14;100766.25;;;10.79;100.00
31761;BME280;18335;51.486;7.562;2023-06-04T05:22:44;100772.75;;;10.95;100.00
31761;BME280;18335;51.486;7.562;2023-06-04T05:25:11;100767.53;;;11.02;100.00
31761;BME280;18335;51.486;7.562;2023-06-04T05:27:41;100768.31;;;11.12;100.00
31761;BME280;18335;51.486;7.562;2023-06-04T05:30:11;100756.50;;;11.29;100.00
31761;BME280;18335;51.486;7.562;2023-06-04T05:32:38;100762.91;;;11.38;100.00
31761;BME280;18335;51.486;7.562;2023-06-04T05:35:09;100764.66;;;11.47;100.00
31761;BME280;18335;51.486;7.562;2023-06-04T05:37:38;100764.75;;;11.55;100.00
31761;BME280;18335;51.486;7.562;2023-06-04T05:40:08;100772.69;;;11.66;100.00
31761;BME280;18335;51.486;7.562;2023-06-04T05:42:36;100768.50;;;11.72;100.00
31761;BME280;18335;51.486;7.562;2023-06-04T05:45:06;100770.47;;;11.87;100.00
31761;BME280;18335;51.486;7.562;2023-06-04T05:47:34;100765.34;;;11.84;100.00
31761;BME280;18335;51.486;7.562;2023-06-04T05:50:03;100770.06;;;12.00;100.00
31761;BME280;18335;51.486;7.562;2023-06-04T05:52:31;100766.16;;;12.10;100.00
31761;BME280;18335;51.486;7.562;2023-06-04T05:54:58;100772.72;;;12.17;100.00
31761;BME280;18335;51.486;7.562;2023-06-04T05:57:25;100770.44;;;12.47;100.00
31761;BME280;18335;51.486;7.562;2023-06-04T05:59:52;100771.88;;;12.59;100.00
31761;BME280;18335;51.486;7.562;2023-06-04T06:02:20;100769.47;;;12.64;100.00
31761;BME280;18335;51.486;7.562;2023-06-04T06:04:47;100773.63;;;12.76;100.00
31761;BME280;18335;51.486;7.562;2023-06-04T06:07:14;100772.28;;;12.80;100.00
31761;BME280;18335;51.486;7.562;2023-06-04T06:09:41;100772.69;;;13.01;100.00
31761;BME280;18335;51.486;7.562;2023-06-04T06:12:07;100773.72;;;13.08;100.00
31761;BME280;18335;51.486;7.562;2023-06-04T06:14:36;100782.44;;;12.96;100.00
31761;BME280;18335;51.486;7.562;2023-06-04T06:17:03;100775.97;;;13.13;100.00
31761;BME280;18335;51.486;7.562;2023-06-04T06:19:32;100780.59;;;13.20;100.00
31761;BME280;18335;51.486;7.562;2023-06-04T06:21:58;100777.53;;;13.40;100.00
31761;BME280;18335;51.486;7.562;2023-06-04T06:24:27;100784.56;;;13.50;100.00
31761;BME280;18335;51.486;7.562;2023-06-04T06:26:54;100793.66;;;13.43;100.00
31761;BME280;18335;51.486;7.562;2023-06-04T06:29:21;100783.03;;;13.48;100.00
31761;BME280;18335;51.486;7.562;2023-06-04T06:31:49;100785.25;;;13.60;100.00
31761;BME280;18335;51.486;7.562;2023-06-04T06:34:16;100786.63;;;13.89;100.00
31761;BME280;18335;51.486;7.562;2023-06-04T06:36:44;100782.63;;;13.99;100.00
31761;BME280;18335;51.486;7.562;2023-06-04T06:39:10;100786.75;;;14.03;100.00
31761;BME280;18335;51.486;7.562;2023-06-04T06:41:37;100794.81;;;14.05;100.00
31761;BME280;18335;51.486;7.562;2023-06-04T06:44:08;100790.34;;;13.96;100.00
31761;BME280;18335;51.486;7.562;2023-06-04T06:46:35;100790.50;;;14.18;100.00
31761;BME280;18335;51.486;7.562;2023-06-04T06:49:02;100791.88;;;14.14;100.00
31761;BME280;18335;51.486;7.562;2023-06-04T06:51:28;100795.97;;;14.34;100.00
31761;BME280;18335;51.486;7.562;2023-06-04T06:53:56;100800.06;;;14.38;100.00
31761;BME280;18335;51.486;7.562;2023-06-04T06:56:23;100802.63;;;14.48;100.00
31761;BME280;18335;51.486;7.562;2023-06-04T06:58:50;100806.19;;;14.57;100.00
31761;BME280;18335;51.486;7.562;2023-06-04T07:01:17;100804.44;;;14.64;100.00
31761;BME280;18335;51.486;7.562;2023-06-04T07:03:44;100800.00;;;14.63;100.00
31761;BME280;18335;51.486;7.562;2023-06-04T07:06:11;100795.41;;;14.86;100.00
31761;BME280;18335;51.486;7.562;2023-06-04T07:08:39;100795.00;;;14.97;100.00
31761;BME280;18335;51.486;7.562;2023-06-04T07:11:07;100790.66;;;15.03;100.00
31761;BME280;18335;51.486;7.562;2023-06-04T07:13:37;100798.63;;;15.20;100.00
31761;BME280;18335;51.486;7.562;2023-06-04T07:16:04;100794.63;;;15.31;100.00
31761;BME280;18335;51.486;7.562;2023-06-04T07:18:31;100789.59;;;15.34;100.00
31761;BME280;18335;51.486;7.562;2023-06-04T07:20:58;100791.63;;;15.40;100.00
31761;BME280;18335;51.486;7.562;2023-06-04T07:23:25;100796.06;;;15.41;100.00
31761;BME280;18335;51.486;7.562;2023-06-04T07:25:53;100789.50;;;15.73;100.00
31761;BME280;18335;51.486;7.562;2023-06-04T07:28:22;100789.13;;;15.76;100.00
31761;BME280;18335;51.486;7.562;2023-06-04T07:30:50;100797.50;;;15.83;100.00
31761;BME280;18335;51.486;7.562;2023-06-04T07:33:17;100800.00;;;16.07;100.00
31761;BME280;18335;51.486;7.562;2023-06-04T07:35:43;100793.00;;;16.48;100.00
31761;BME280;18335;51.486;7.562;2023-06-04T07:38:10;100791.03;;;16.42;100.00
31761;BME280;18335;51.486;7.562;2023-06-04T07:40:37;100794.06;;;16.47;100.00
31761;BME280;18335;51.486;7.562;2023-06-04T07:43:04;100785.72;;;16.55;100.00
31761;BME280;18335;51.486;7.562;2023-06-04T07:45:32;100795.31;;;16.59;100.00
31761;BME280;18335;51.486;7.562;2023-06-04T07:47:59;100789.31;;;16.71;100.00
31761;BME280;18335;51.486;7.562;2023-06-04T07:50:26;100791.22;;;17.06;100.00
31761;BME280;18335;51.486;7.562;2023-06-04T07:52:52;100791.84;;;17.01;100.00
31761;BME280;18335;51.486;7.562;2023-06-04T07:55:19;100802.19;;;16.85;98.89
31761;BME280;18335;51.486;7.562;2023-06-04T07:57:46;100801.44;;;16.91;98.54
31761;BME280;18335;51.486;7.562;2023-06-04T08:00:14;100805.78;;;17.00;100.00
31761;BME280;18335;51.486;7.562;2023-06-04T08:02:44;100792.44;;;17.18;96.51
31761;BME280;18335;51.486;7.562;2023-06-04T08:05:11;100800.19;;;17.50;100.00
31761;BME280;18335;51.486;7.562;2023-06-04T08:07:39;100794.63;;;17.23;99.28
31761;BME280;18335;51.486;7.562;2023-06-04T08:10:06;100801.00;;;17.44;100.00
31761;BME280;18335;51.486;7.562;2023-06-04T08:12:33;100797.19;;;17.45;100.00
31761;BME280;18335;51.486;7.562;2023-06-04T08:15:00;100785.31;;;17.66;98.37
31761;BME280;18335;51.486;7.562;2023-06-04T08:17:31;100790.59;;;17.61;100.00
31761;BME280;18335;51.486;7.562;2023-06-04T08:20:18;100785.00;;;17.76;100.00
31761;BME280;18335;51.486;7.562;2023-06-04T08:22:57;100785.47;;;17.79;100.00
31761;BME280;18335;51.486;7.562;2023-06-04T08:25:28;100780.56;;;17.81;93.63
31761;BME280;18335;51.486;7.562;2023-06-04T08:28:17;100787.72;;;17.97;92.29
31761;BME280;18335;51.486;7.562;2023-06-04T08:30:58;100794.91;;;17.91;88.94
31761;BME280;18335;51.486;7.562;2023-06-04T08:33:37;100782.19;;;17.97;99.70
31761;BME280;18335;51.486;7.562;2023-06-04T08:36:10;100799.47;;;18.33;99.68
31761;BME280;18335;51.486;7.562;2023-06-04T08:38:37;100788.06;;;18.43;90.04
31761;BME280;18335;51.486;7.562;2023-06-04T08:41:10;100790.38;;;18.39;91.36
31761;BME280;18335;51.486;7.562;2023-06-04T08:43:40;100800.34;;;18.40;87.03
31761;BME280;18335;51.486;7.562;2023-06-04T08:46:09;100798.25;;;18.42;85.50
31761;BME280;18335;51.486;7.562;2023-06-04T08:48:41;100788.38;;;18.61;88.35
31761;BME280;18335;51.486;7.562;2023-06-04T08:51:08;100794.22;;;18.72;93.84
31761;BME280;18335;51.486;7.562;2023-06-04T08:53:37;100793.13;;;18.73;100.00
31761;BME280;18335;51.486;7.562;2023-06-04T08:56:04;100789.59;;;18.86;94.36
31761;BME280;18335;51.486;7.562;2023-06-04T08:58:32;100792.47;;;18.65;82.07
31761;BME280;18335;51.486;7.562;2023-06-04T09:01:00;100791.78;;;19.04;90.62
31761;BME280;18335;51.486;7.562;2023-06-04T09:03:28;100803.75;;;19.11;94.87
31761;BME280;18335;51.486;7.562;2023-06-04T09:05:56;100790.94;;;19.03;81.07
31761;BME280;18335;51.486;7.562;2023-06-04T09:08:24;100793.31;;;19.13;91.08
31761;BME280;18335;51.486;7.562;2023-06-04T09:10:53;100794.25;;;18.86;86.11
31761;BME280;18335;51.486;7.562;2023-06-04T09:13:22;100792.91;;;19.16;83.77
31761;BME280;18335;51.486;7.562;2023-06-04T09:15:59;100795.03;;;19.27;92.17
31761;BME280;18335;51.486;7.562;2023-06-04T09:18:26;100790.81;;;19.31;88.40
31761;BME280;18335;51.486;7.562;2023-06-04T09:21:00;100790.16;;;19.22;83.88
31761;BME280;18335;51.486;7.562;2023-06-04T09:23:27;100790.69;;;19.65;73.83
31761;BME280;18335;51.486;7.562;2023-06-04T09:26:05;100786.88;;;19.86;81.62
31761;BME280;18335;51.486;7.562;2023-06-04T09:28:33;100790.06;;;20.29;88.29
31761;BME280;18335;51.486;7.562;2023-06-04T09:31:00;100782.59;;;20.23;76.46
31761;BME280;18335;51.486;7.562;2023-06-04T09:33:27;100786.44;;;20.09;74.80
31761;BME280;18335;51.486;7.562;2023-06-04T09:35:55;100790.28;;;20.14;88.64
31761;BME280;18335;51.486;7.562;2023-06-04T09:38:22;100785.59;;;20.21;78.48
31761;BME280;18335;51.486;7.562;2023-06-04T09:40:50;100780.28;;;20.26;75.04
31761;BME280;18335;51.486;7.562;2023-06-04T09:43:24;100778.34;;;20.14;81.50
31761;BME280;18335;51.486;7.562;2023-06-04T09:45:50;100779.19;;;20.14;85.50
31761;BME280;18335;51.486;7.562;2023-06-04T09:48:21;100775.72;;;20.58;81.01
31761;BME280;18335;51.486;7.562;2023-06-04T09:50:49;100780.34;;;20.84;79.69
31761;BME280;18335;51.486;7.562;2023-06-04T09:53:17;100784.28;;;20.57;86.25
31761;BME280;18335;51.486;7.562;2023-06-04T09:55:56;100780.19;;;20.66;64.97
31761;BME280;18335;51.486;7.562;2023-06-04T09:58:25;100783.34;;;20.76;81.75
31761;BME280;18335;51.486;7.562;2023-06-04T10:00:54;100783.97;;;20.84;74.55
31761;BME280;18335;51.486;7.562;2023-06-04T10:03:23;100774.22;;;20.69;64.79
31761;BME280;18335;51.486;7.562;2023-06-04T10:05:52;100778.16;;;20.92;71.54
31761;BME280;18335;51.486;7.562;2023-06-04T10:08:21;100780.53;;;20.82;64.76
31761;BME280;18335;51.486;7.562;2023-06-04T10:10:49;100780.63;;;20.69;64.47
31761;BME280;18335;51.486;7.562;2023-06-04T10:13:19;100773.59;;;20.67;68.68
31761;BME280;18335;51.486;7.562;2023-06-04T10:15:47;100771.19;;;20.77;77.98
31761;BME280;18335;51.486;7.562;2023-06-04T10:18:14;100774.78;;;20.90;58.85
31761;BME280;18335;51.486;7.562;2023-06-04T10:20:42;100769.69;;;21.32;68.04
31761;BME280;18335;51.486;7.562;2023-06-04T10:23:09;100769.59;;;21.45;55.42
31761;BME280;18335;51.486;7.562;2023-06-04T10:25:37;100774.50;;;21.43;71.84
31761;BME280;18335;51.486;7.562;2023-06-04T10:28:04;100753.97;;;21.75;70.72
31761;BME280;18335;51.486;7.562;2023-06-04T10:30:31;100757.78;;;21.56;62.59
31761;BME280;18335;51.486;7.562;2023-06-04T10:32:59;100760.50;;;21.87;62.67
31761;BME280;18335;51.486;7.562;2023-06-04T10:35:30;100760.34;;;21.51;60.38
31761;BME280;18335;51.486;7.562;2023-06-04T10:38:05;100756.47;;;21.83;64.09
31761;BME280;18335;51.486;7.562;2023-06-04T10:40:32;100747.81;;;21.73;58.47
31761;BME280;18335;51.486;7.562;2023-06-04T10:43:04;100764.16;;;21.57;51.21
31761;BME280;18335;51.486;7.562;2023-06-04T10:45:31;100749.38;;;21.87;50.61
31761;BME280;18335;51.486;7.562;2023-06-04T10:48:01;100760.66;;;21.99;58.15
31761;BME280;18335;51.486;7.562;2023-06-04T10:50:28;100745.69;;;21.69;54.59
31761;BME280;18335;51.486;7.562;2023-06-04T10:52:56;100756.69;;;21.88;59.42
31761;BME280;18335;51.486;7.562;2023-06-04T10:55:24;100752.88;;;22.08;65.53
31761;BME280;18335;51.486;7.562;2023-06-04T10:57:53;100752.22;;;21.81;57.53
31761;BME280;18335;51.486;7.562;2023-06-04T11:00:20;100747.91;;;21.91;51.93
31761;BME280;18335;51.486;7.562;2023-06-04T11:02:52;100749.97;;;21.71;56.79
31761;BME280;18335;51.486;7.562;2023-06-04T11:05:22;100750.91;;;21.83;53.96
31761;BME280;18335;51.486;7.562;2023-06-04T11:07:49;100743.31;;;22.03;52.57
31761;BME280;18335;51.486;7.562;2023-06-04T11:10:17;100740.09;;;22.25;49.83
31761;BME280;18335;51.486;7.562;2023-06-04T11:12:44;100750.16;;;22.44;64.80
31761;BME280;18335;51.486;7.562;2023-06-04T11:15:12;100744.09;;;22.29;54.61
31761;BME280;18335;51.486;7.562;2023-06-04T11:17:50;100730.19;;;22.29;57.89
31761;BME280;18335;51.486;7.562;2023-06-04T11:20:18;100732.41;;;22.45;59.19
31761;BME280;18335;51.486;7.562;2023-06-04T11:22:52;100734.84;;;22.35;48.53
31761;BME280;18335;51.486;7.562;2023-06-04T11:25:19;100733.06;;;22.58;65.29
31761;BME280;18335;51.486;7.562;2023-06-04T11:27:48;100741.13;;;22.48;53.06
31761;BME280;18335;51.486;7.562;2023-06-04T11:30:15;100733.28;;;22.21;51.84
31761;BME280;18335;51.486;7.562;2023-06-04T11:32:42;100722.16;;;22.21;49.70
31761;BME280;18335;51.486;7.562;2023-06-04T11:35:09;100727.00;;;22.68;55.61
31761;BME280;18335;51.486;7.562;2023-06-04T11:37:38;100730.19;;;22.72;49.90
31761;BME280;18335;51.486;7.562;2023-06-04T11:40:16;100722.19;;;22.57;54.81
31761;BME280;18335;51.486;7.562;2023-06-04T11:42:44;100724.59;;;22.90;54.96
31761;BME280;18335;51.486;7.562;2023-06-04T11:45:12;100723.88;;;22.94;48.15
31761;BME280;18335;51.486;7.562;2023-06-04T11:47:39;100727.09;;;23.09;55.87
31761;BME280;18335;51.486;7.562;2023-06-04T11:50:07;100720.03;;;23.25;43.87
31761;BME280;18335;51.486;7.562;2023-06-04T11:52:34;100726.91;;;23.23;66.83
31761;BME280;18335;51.486;7.562;2023-06-04T11:55:01;100720.88;;;23.26;66.83
31761;BME280;18335;51.486;7.562;2023-06-04T11:57:29;100715.78;;;23.23;50.10
31761;BME280;18335;51.486;7.562;2023-06-04T11:59:56;100718.25;;;23.84;58.25
31761;BME280;18335;51.486;7.562;2023-06-04T12:02:23;100720.22;;;23.42;51.57
31761;BME280;18335;51.486;7.562;2023-06-04T12:04:50;100711.22;;;23.81;45.12
31761;BME280;18335;51.486;7.562;2023-06-04T12:07:20;100716.75;;;23.46;50.74
31761;BME280;18335;51.486;7.562;2023-06-04T12:09:49;100711.72;;;23.37;56.50
31761;BME280;18335;51.486;7.562;2023-06-04T12:12:22;100708.09;;;23.89;52.31
31761;BME280;18335;51.486;7.562;2023-06-04T12:14:57;100716.78;;;23.69;48.57
31761;BME280;18335;51.486;7.562;2023-06-04T12:17:24;100702.22;;;23.56;55.08
31761;BME280;18335;51.486;7.562;2023-06-04T12:19:51;100697.75;;;23.55;46.16
31761;BME280;18335;51.486;7.562;2023-06-04T12:22:19;100688.59;;;24.01;49.94
31761;BME280;18335;51.486;7.562;2023-06-04T12:24:47;100705.78;;;23.98;49.76
31761;BME280;18335;51.486;7.562;2023-06-04T12:27:14;100706.75;;;23.80;51.21
31761;BME280;18335;51.486;7.562;2023-06-04T12:29:41;100695.59;;;23.80;44.71
31761;BME280;18335;51.486;7.562;2023-06-04T12:32:10;100695.22;;;23.65;40.91
31761;BME280;18335;51.486;7.562;2023-06-04T12:34:37;100701.41;;;23.90;43.79
31761;BME280;18335;51.486;7.562;2023-06-04T12:37:04;100693.31;;;23.77;44.35
31761;BME280;18335;51.486;7.562;2023-06-04T12:39:32;100699.84;;;23.94;45.18
31761;BME280;18335;51.486;7.562;2023-06-04T12:41:59;100696.09;;;24.00;37.99
31761;BME280;18335;51.486;7.562;2023-06-04T12:44:25;100693.31;;;24.35;36.83
31761;BME280;18335;51.486;7.562;2023-06-04T12:46:52;100697.06;;;24.41;41.98
31761;BME280;18335;51.486;7.562;2023-06-04T12:49:20;100691.22;;;24.54;46.01
31761;BME280;18335;51.486;7.562;2023-06-04T12:51:47;100704.09;;;24.55;36.51
31761;BME280;18335;51.486;7.562;2023-06-04T12:54:14;100692.59;;;24.91;36.51